createdAt,value
2023-01-12T00:00:17.641Z,92.00
2023-01-12T00:01:17.529Z,91.89
2023-01-12T00:02:17.574Z,91.52
2023-01-12T00:03:17.519Z,91.32
2023-01-12T00:04:17.634Z,91.38
2023-01-12T00:05:17.500Z,91.58
2023-01-12T00:06:17.506Z,91.42
2023-01-12T00:07:17.511Z,91.48
2023-01-12T00:08:17.488Z,91.79
2023-01-12T00:09:17.481Z,91.58
2023-01-12T00:10:17.454Z,91.28
2023-01-12T00:11:17.448Z,91.17
2023-01-12T00:12:17.468Z,91.79
2023-01-12T00:13:17.502Z,91.79
2023-01-12T00:14:17.433Z,91.79
2023-01-12T00:15:17.427Z,91.89
2023-01-12T00:16:17.461Z,91.79
2023-01-12T00:17:17.423Z,91.69
2023-01-12T00:18:17.409Z,91.58
2023-01-12T00:19:17.434Z,91.69
2023-01-12T00:20:17.406Z,91.69
2023-01-12T00:21:17.381Z,91.38
2023-01-12T00:22:17.403Z,90.97
2023-01-12T00:23:17.498Z,91.07
2023-01-12T00:24:17.358Z,91.17
2023-01-12T00:25:17.379Z,90.76
2023-01-12T00:26:17.352Z,90.76
2023-01-12T00:27:17.368Z,90.61
2023-01-12T00:28:17.331Z,90.72
2023-01-12T00:29:17.318Z,90.45
2023-01-12T00:30:17.314Z,90.66
2023-01-12T00:31:17.305Z,90.61
2023-01-12T00:32:17.315Z,90.82
2023-01-12T00:33:17.299Z,90.61
2023-01-12T00:34:17.275Z,90.66
2023-01-12T00:35:17.280Z,90.61
2023-01-12T00:36:17.267Z,90.51
2023-01-12T00:37:17.291Z,90.97
2023-01-12T00:38:17.229Z,90.86
2023-01-12T00:39:17.235Z,90.61
2023-01-12T00:40:17.215Z,90.92
2023-01-12T00:41:17.212Z,91.96
2023-01-12T00:42:17.246Z,91.79
2023-01-12T00:43:17.216Z,91.48
2023-01-12T00:44:17.189Z,91.58
2023-01-12T00:45:17.204Z,91.48
2023-01-12T00:46:17.227Z,91.89
2023-01-12T00:47:17.202Z,91.89
2023-01-12T00:48:17.198Z,91.38
2023-01-12T00:49:17.147Z,91.34
2023-01-12T00:50:19.337Z,91.24
2023-01-12T00:51:18.178Z,91.38
2023-01-12T00:52:29.356Z,92.00
2023-01-12T00:53:19.146Z,91.34
2023-01-12T00:54:17.108Z,91.75
2023-01-12T00:55:17.103Z,91.64
2023-01-12T00:56:17.087Z,92.00
2023-01-12T00:57:17.090Z,91.89
2023-01-12T00:58:17.097Z,92.00
2023-01-12T00:59:17.082Z,91.96
2023-01-12T01:00:17.082Z,91.96
2023-01-12T01:01:17.109Z,91.79
2023-01-12T01:02:17.155Z,91.79
2023-01-12T01:03:17.070Z,91.75
2023-01-12T01:04:17.031Z,91.28
2023-01-12T01:05:17.021Z,91.24
2023-01-12T01:06:17.013Z,91.24
2023-01-12T01:07:17.016Z,91.75
2023-01-12T01:08:17.020Z,91.13
2023-01-12T01:09:16.991Z,91.85
2023-01-12T01:10:16.979Z,91.75
2023-01-12T01:11:16.999Z,91.96
2023-01-12T01:12:16.978Z,92.06
2023-01-12T01:13:16.984Z,91.85
2023-01-12T01:14:16.959Z,91.85
2023-01-12T01:15:16.935Z,91.64
2023-01-12T01:16:17.035Z,92.27
2023-01-12T01:17:16.924Z,91.64
2023-01-12T01:18:16.951Z,91.96
2023-01-12T01:19:16.921Z,92.16
2023-01-12T01:20:16.919Z,91.85
2023-01-12T01:21:16.907Z,91.96
2023-01-12T01:22:16.885Z,91.85
2023-01-12T01:23:16.915Z,91.64
2023-01-12T01:24:16.876Z,91.85
2023-01-12T01:25:16.876Z,91.85
2023-01-12T01:26:16.862Z,92.37
2023-01-12T01:27:16.856Z,92.16
2023-01-12T01:28:16.865Z,91.91
2023-01-12T01:29:16.842Z,91.96
2023-01-12T01:30:16.832Z,91.75
2023-01-12T01:31:16.854Z,91.85
2023-01-12T01:32:16.878Z,92.43
2023-01-12T01:33:16.836Z,92.57
2023-01-12T01:34:16.820Z,92.94
2023-01-12T01:35:16.791Z,92.57
2023-01-12T01:36:16.783Z,92.27
2023-01-12T01:37:16.777Z,92.12
2023-01-12T01:38:16.833Z,91.75
2023-01-12T01:39:16.765Z,91.60
2023-01-12T01:40:16.883Z,91.71
2023-01-12T01:41:16.738Z,91.91
2023-01-12T01:42:16.777Z,91.91
2023-01-12T01:43:16.757Z,91.91
2023-01-12T01:44:16.729Z,91.81
2023-01-12T01:45:16.748Z,91.91
2023-01-12T01:46:16.730Z,91.71
2023-01-12T01:47:16.700Z,91.71
2023-01-12T01:48:16.732Z,91.71
2023-01-12T01:49:16.684Z,91.71
2023-01-12T01:50:16.688Z,91.40
2023-01-12T01:51:16.678Z,91.30
2023-01-12T01:52:16.665Z,91.25
2023-01-12T01:53:16.712Z,91.56
2023-01-12T01:54:16.637Z,91.71
2023-01-12T01:55:16.667Z,91.36
2023-01-12T01:56:16.636Z,91.19
2023-01-12T01:57:16.638Z,91.60
2023-01-12T01:58:16.642Z,91.71
2023-01-12T01:59:16.612Z,91.36
2023-01-12T02:00:16.614Z,91.36
2023-01-12T02:01:16.727Z,91.25
2023-01-12T02:02:16.679Z,91.36
2023-01-12T02:03:16.622Z,91.66
2023-01-12T02:04:16.620Z,91.25
2023-01-12T02:05:16.581Z,91.60
2023-01-12T02:06:16.587Z,91.77
2023-01-12T02:07:16.554Z,91.46
2023-01-12T02:08:16.542Z,91.46
2023-01-12T02:09:16.560Z,91.05
2023-01-12T02:10:16.548Z,91.36
2023-01-12T02:11:16.548Z,91.25
2023-01-12T02:12:16.516Z,91.46
2023-01-12T02:13:16.516Z,91.15
2023-01-12T02:14:16.521Z,91.46
2023-01-12T02:15:16.504Z,91.25
2023-01-12T02:16:16.527Z,91.25
2023-01-12T02:17:16.480Z,91.46
2023-01-12T02:18:16.481Z,91.46
2023-01-12T02:19:16.468Z,91.66
2023-01-12T02:20:16.459Z,91.66
2023-01-12T02:21:16.488Z,91.87
2023-01-12T02:22:16.444Z,92.38
2023-01-12T02:23:16.431Z,92.29
2023-01-12T02:24:16.425Z,92.08
2023-01-12T02:25:16.430Z,93.01
2023-01-12T02:26:16.448Z,92.69
2023-01-12T02:27:16.414Z,92.38
2023-01-12T02:28:16.388Z,92.53
2023-01-12T02:29:16.399Z,92.08
2023-01-12T02:30:16.381Z,93.21
2023-01-12T02:31:16.709Z,92.29
2023-01-12T02:32:16.367Z,92.53
2023-01-12T02:33:16.364Z,92.84
2023-01-12T02:34:16.352Z,92.80
2023-01-12T02:35:16.372Z,92.69
2023-01-12T02:36:16.329Z,91.97
2023-01-12T02:37:16.366Z,92.29
2023-01-12T02:38:16.324Z,92.49
2023-01-12T02:39:16.320Z,92.49
2023-01-12T02:40:16.335Z,92.29
2023-01-12T02:41:16.301Z,92.49
2023-01-12T02:42:16.347Z,92.49
2023-01-12T02:43:16.330Z,92.29
2023-01-12T02:44:16.272Z,91.97
2023-01-12T02:45:16.288Z,93.11
2023-01-12T02:46:16.292Z,92.38
2023-01-12T02:47:16.279Z,92.38
2023-01-12T02:48:16.264Z,91.97
2023-01-12T02:49:16.241Z,93.01
2023-01-12T02:50:16.240Z,92.29
2023-01-12T02:51:16.214Z,92.38
2023-01-12T02:52:16.239Z,92.29
2023-01-12T02:53:16.231Z,91.87
2023-01-12T02:54:16.217Z,91.56
2023-01-12T02:55:16.190Z,92.38
2023-01-12T02:56:16.183Z,92.29
2023-01-12T02:57:16.224Z,92.38
2023-01-12T02:58:16.166Z,92.49
2023-01-12T02:59:16.150Z,92.08
2023-01-12T03:00:16.158Z,92.38
2023-01-12T03:01:16.206Z,91.46
2023-01-12T03:02:16.164Z,91.87
2023-01-12T03:03:16.236Z,92.08
2023-01-12T03:04:16.116Z,92.18
2023-01-12T03:05:16.105Z,91.87
2023-01-12T03:06:16.124Z,91.97
2023-01-12T03:07:16.115Z,91.36
2023-01-12T03:08:16.096Z,91.15
2023-01-12T03:09:16.072Z,91.36
2023-01-12T03:10:16.087Z,90.94
2023-01-12T03:11:16.080Z,91.31
2023-01-12T03:12:16.092Z,91.25
2023-01-12T03:13:16.063Z,91.25
2023-01-12T03:14:16.071Z,91.25
2023-01-12T03:15:16.031Z,91.21
2023-01-12T03:16:16.078Z,91.36
2023-01-12T03:17:16.050Z,91.25
2023-01-12T03:18:16.015Z,91.36
2023-01-12T03:19:16.025Z,91.11
2023-01-12T03:20:16.013Z,91.36
2023-01-12T03:21:15.980Z,91.56
2023-01-12T03:22:17.013Z,91.77
2023-01-12T03:23:15.995Z,91.77
2023-01-12T03:24:15.965Z,91.77
2023-01-12T03:25:15.964Z,91.46
2023-01-12T03:26:15.952Z,91.36
2023-01-12T03:27:15.992Z,91.62
2023-01-12T03:28:15.955Z,91.66
2023-01-12T03:29:15.929Z,91.56
2023-01-12T03:30:15.935Z,91.66
2023-01-12T03:31:15.932Z,91.66
2023-01-12T03:32:15.963Z,91.56
2023-01-12T03:33:15.926Z,91.56
2023-01-12T03:34:15.901Z,91.05
2023-01-12T03:35:15.897Z,91.31
2023-01-12T03:36:15.878Z,91.15
2023-01-12T03:37:15.864Z,90.90
2023-01-12T03:38:15.899Z,91.52
2023-01-12T03:39:15.852Z,91.21
2023-01-12T03:40:15.869Z,91.25
2023-01-12T03:41:15.910Z,91.25
2023-01-12T03:42:15.845Z,91.25
2023-01-12T03:43:15.858Z,91.25
2023-01-12T03:44:15.818Z,91.25
2023-01-12T03:45:15.843Z,91.36
2023-01-12T03:46:15.833Z,91.52
2023-01-12T03:47:15.795Z,91.21
2023-01-12T03:48:15.846Z,91.21
2023-01-12T03:49:15.780Z,91.31
2023-01-12T03:50:15.772Z,91.46
2023-01-12T03:51:15.770Z,91.11
2023-01-12T03:52:15.759Z,91.15
2023-01-12T03:53:15.828Z,91.62
2023-01-12T03:54:15.754Z,91.36
2023-01-12T03:55:15.750Z,91.62
2023-01-12T03:56:15.741Z,91.36
2023-01-12T03:57:15.723Z,91.66
2023-01-12T03:58:15.742Z,91.21
2023-01-12T03:59:15.703Z,91.52
2023-01-12T04:00:15.703Z,91.42
2023-01-12T04:01:15.749Z,91.46
2023-01-12T04:02:15.680Z,91.62
2023-01-12T04:03:15.737Z,91.62
2023-01-12T04:04:15.672Z,91.46
2023-01-12T04:05:15.664Z,91.83
2023-01-12T04:06:15.658Z,91.66
2023-01-12T04:07:15.646Z,91.00
2023-01-12T04:08:15.677Z,90.49
2023-01-12T04:09:15.622Z,90.39
2023-01-12T04:10:15.618Z,90.28
2023-01-12T04:11:15.610Z,90.39
2023-01-12T04:12:15.606Z,90.39
2023-01-12T04:13:15.635Z,90.80
2023-01-12T04:14:15.650Z,90.39
2023-01-12T04:15:15.600Z,90.80
2023-01-12T04:16:15.608Z,90.59
2023-01-12T04:17:15.588Z,90.80
2023-01-12T04:18:15.594Z,90.49
2023-01-12T04:19:15.554Z,90.45
2023-01-12T04:20:15.548Z,90.39
2023-01-12T04:21:15.540Z,90.49
2023-01-12T04:22:15.550Z,90.80
2023-01-12T04:23:15.571Z,90.80
2023-01-12T04:24:15.515Z,91.00
2023-01-12T04:25:15.517Z,90.80
2023-01-12T04:26:15.502Z,90.80
2023-01-12T04:27:15.500Z,90.80
2023-01-12T04:28:15.507Z,90.80
2023-01-12T04:29:15.499Z,91.00
2023-01-12T04:30:15.486Z,91.00
2023-01-12T04:31:15.464Z,91.62
2023-01-12T04:32:15.465Z,91.42
2023-01-12T04:33:15.498Z,91.21
2023-01-12T04:34:15.447Z,91.72
2023-01-12T04:35:15.452Z,91.52
2023-01-12T04:36:15.431Z,91.62
2023-01-12T04:37:15.421Z,91.83
2023-01-12T04:38:15.467Z,91.62
2023-01-12T04:39:15.408Z,91.31
2023-01-12T04:40:15.395Z,91.42
2023-01-12T04:41:15.386Z,91.62
2023-01-12T04:42:16.403Z,91.21
2023-01-12T04:43:15.407Z,91.42
2023-01-12T04:44:15.393Z,91.62
2023-01-12T04:45:15.382Z,91.52
2023-01-12T04:46:15.430Z,91.42
2023-01-12T04:47:15.359Z,91.21
2023-01-12T04:48:15.365Z,91.21
2023-01-12T04:49:15.328Z,91.62
2023-01-12T04:50:15.330Z,91.21
2023-01-12T04:51:15.310Z,91.52
2023-01-12T04:52:15.314Z,91.06
2023-01-12T04:53:15.366Z,91.00
2023-01-12T04:54:15.286Z,91.31
2023-01-12T04:55:15.292Z,91.31
2023-01-12T04:56:15.282Z,91.52
2023-01-12T04:57:15.272Z,91.72
2023-01-12T04:58:15.264Z,91.62
2023-01-12T04:59:15.273Z,91.52
2023-01-12T05:00:15.260Z,91.42
2023-01-12T05:01:15.305Z,91.42
2023-01-12T05:02:15.273Z,91.21
2023-01-12T05:03:15.234Z,91.21
2023-01-12T05:04:15.351Z,91.31
2023-01-12T05:05:15.203Z,91.52
2023-01-12T05:06:15.203Z,91.31
2023-01-12T05:07:15.185Z,91.42
2023-01-12T05:08:15.223Z,91.52
2023-01-12T05:09:15.202Z,91.42
2023-01-12T05:10:15.157Z,91.72
2023-01-12T05:11:15.154Z,91.62
2023-01-12T05:12:15.147Z,91.00
2023-01-12T05:13:15.143Z,91.06
2023-01-12T05:14:15.194Z,90.66
2023-01-12T05:15:15.129Z,91.06
2023-01-12T05:16:15.166Z,91.00
2023-01-12T05:17:15.102Z,91.27
2023-01-12T05:18:15.096Z,91.11
2023-01-12T05:19:15.123Z,90.66
2023-01-12T05:20:15.084Z,90.45
2023-01-12T05:21:15.076Z,90.45
2023-01-12T05:22:15.067Z,90.34
2023-01-12T05:23:15.054Z,90.24
2023-01-12T05:24:15.181Z,90.34
2023-01-12T05:25:15.044Z,90.45
2023-01-12T05:26:15.061Z,90.55
2023-01-12T05:27:15.038Z,90.55
2023-01-12T05:28:15.029Z,90.55
2023-01-12T05:29:15.040Z,90.14
2023-01-12T05:30:15.017Z,90.24
2023-01-12T05:31:15.056Z,90.34
2023-01-12T05:32:14.997Z,90.34
2023-01-12T05:33:14.979Z,90.24
2023-01-12T05:34:15.110Z,90.24
2023-01-12T05:35:14.972Z,90.14
2023-01-12T05:36:14.978Z,90.14
2023-01-12T05:37:14.972Z,90.24
2023-01-12T05:38:14.956Z,90.09
2023-01-12T05:39:14.983Z,90.03
2023-01-12T05:40:14.931Z,89.89
2023-01-12T05:41:14.938Z,89.94
2023-01-12T05:42:14.941Z,89.79
2023-01-12T05:43:14.916Z,89.89
2023-01-12T05:44:14.933Z,89.17
2023-01-12T05:45:14.908Z,89.48
2023-01-12T05:46:15.038Z,89.79
2023-01-12T05:47:14.880Z,89.58
2023-01-12T05:48:14.883Z,89.52
2023-01-12T05:49:14.895Z,89.79
2023-01-12T05:50:14.859Z,89.89
2023-01-12T05:51:14.869Z,89.79
2023-01-12T05:52:14.836Z,89.83
2023-01-12T05:53:14.837Z,90.20
2023-01-12T05:54:14.847Z,89.89
2023-01-12T05:55:14.824Z,89.89
2023-01-12T05:56:15.808Z,90.20
2023-01-12T05:57:14.794Z,90.41
2023-01-12T05:58:14.799Z,89.69
2023-01-12T05:59:14.831Z,89.58
2023-01-12T06:00:14.781Z,89.17
2023-01-12T06:01:14.832Z,89.28
2023-01-12T06:02:14.793Z,89.79
2023-01-12T06:03:14.753Z,89.58
2023-01-12T06:04:14.840Z,89.28
2023-01-12T06:05:14.737Z,89.28
2023-01-12T06:06:14.733Z,89.28
2023-01-12T06:07:14.725Z,89.28
2023-01-12T06:08:14.727Z,89.28
2023-01-12T06:09:14.739Z,88.96
2023-01-12T06:10:14.702Z,88.56
2023-01-12T06:11:14.717Z,88.76
2023-01-12T06:12:14.710Z,88.96
2023-01-12T06:13:14.682Z,88.56
2023-01-12T06:14:14.714Z,88.66
2023-01-12T06:15:14.670Z,88.76
2023-01-12T06:16:14.708Z,89.13
2023-01-12T06:17:14.647Z,88.86
2023-01-12T06:18:14.661Z,88.76
2023-01-12T06:19:14.645Z,89.07
2023-01-12T06:20:14.643Z,88.76
2023-01-12T06:21:14.613Z,88.76
2023-01-12T06:22:14.653Z,89.17
2023-01-12T06:23:14.598Z,88.96
2023-01-12T06:24:14.606Z,89.48
2023-01-12T06:25:15.624Z,89.17
2023-01-12T06:26:14.603Z,89.23
2023-01-12T06:27:14.574Z,89.28
2023-01-12T06:28:14.578Z,89.17
2023-01-12T06:29:14.568Z,89.69
2023-01-12T06:30:14.580Z,89.38
2023-01-12T06:31:14.579Z,89.07
2023-01-12T06:32:14.539Z,89.79
2023-01-12T06:33:14.542Z,89.28
2023-01-12T06:34:14.522Z,89.48
2023-01-12T06:35:19.374Z,89.69
2023-01-12T06:36:16.490Z,89.44
2023-01-12T06:37:14.488Z,89.48
2023-01-12T06:38:14.479Z,89.38
2023-01-12T06:39:15.479Z,89.38
2023-01-12T06:40:14.502Z,89.13
2023-01-12T06:41:14.604Z,88.92
2023-01-12T06:42:14.456Z,89.07
2023-01-12T06:43:14.462Z,89.03
2023-01-12T06:44:14.441Z,89.17
2023-01-12T06:45:14.448Z,89.17
2023-01-12T06:46:14.454Z,89.03
2023-01-12T06:47:14.444Z,89.07
2023-01-12T06:48:14.413Z,89.28
2023-01-12T06:49:14.393Z,89.07
2023-01-12T06:50:14.415Z,89.13
2023-01-12T06:51:14.383Z,88.76
2023-01-12T06:52:14.376Z,88.76
2023-01-12T06:53:14.361Z,89.03
2023-01-12T06:54:14.357Z,89.03
2023-01-12T06:55:14.384Z,88.72
2023-01-12T06:56:14.334Z,89.13
2023-01-12T06:57:14.344Z,89.23
2023-01-12T06:58:14.319Z,89.03
2023-01-12T06:59:14.318Z,89.23
2023-01-12T07:00:14.352Z,89.17
2023-01-12T07:01:14.366Z,89.23
2023-01-12T07:02:15.370Z,89.23
2023-01-12T07:03:14.284Z,89.34
2023-01-12T07:04:14.306Z,88.92
2023-01-12T07:05:14.332Z,88.92
2023-01-12T07:06:14.260Z,89.23
2023-01-12T07:07:14.261Z,88.92
2023-01-12T07:08:14.246Z,89.13
2023-01-12T07:09:14.241Z,89.13
2023-01-12T07:10:14.230Z,89.23
2023-01-12T07:11:14.251Z,89.34
2023-01-12T07:12:14.231Z,89.34
2023-01-12T07:13:14.209Z,89.64
2023-01-12T07:14:14.206Z,89.03
2023-01-12T07:15:14.194Z,90.09
2023-01-12T07:16:14.281Z,89.75
2023-01-12T07:17:14.185Z,89.95
2023-01-12T07:18:14.174Z,90.06
2023-01-12T07:19:14.166Z,89.75
2023-01-12T07:20:14.191Z,90.20
2023-01-12T07:21:14.175Z,90.00
2023-01-12T07:22:14.168Z,90.26
2023-01-12T07:23:14.133Z,90.20
2023-01-12T07:24:14.153Z,90.47
2023-01-12T07:25:14.128Z,90.09
2023-01-12T07:26:14.157Z,90.36
2023-01-12T07:27:14.116Z,90.30
2023-01-12T07:28:14.106Z,90.26
2023-01-12T07:29:14.096Z,90.81
2023-01-12T07:30:14.086Z,91.23
2023-01-12T07:31:14.200Z,90.92
2023-01-12T07:32:14.064Z,91.13
2023-01-12T07:33:14.103Z,91.29
2023-01-12T07:34:14.063Z,91.44
2023-01-12T07:35:14.037Z,91.13
2023-01-12T07:36:14.080Z,91.29
2023-01-12T07:37:14.028Z,91.53
2023-01-12T07:38:14.030Z,91.95
2023-01-12T07:39:14.001Z,92.16
2023-01-12T07:40:13.999Z,92.05
2023-01-12T07:41:14.064Z,91.64
2023-01-12T07:42:14.991Z,91.64
2023-01-12T07:43:14.021Z,92.46
2023-01-12T07:44:13.959Z,92.46
2023-01-12T07:45:13.964Z,92.16
2023-01-12T07:46:14.007Z,92.87
2023-01-12T07:47:13.946Z,92.87
2023-01-12T07:48:13.941Z,92.77
2023-01-12T07:49:13.949Z,92.40
2023-01-12T07:50:13.920Z,93.43
2023-01-12T07:51:13.940Z,93.18
2023-01-12T07:52:13.915Z,94.26
2023-01-12T07:53:13.890Z,93.64
2023-01-12T07:54:13.891Z,94.31
2023-01-12T07:55:13.881Z,94.26
2023-01-12T07:56:13.899Z,94.05
2023-01-12T07:57:13.889Z,94.26
2023-01-12T07:58:13.862Z,94.05
2023-01-12T07:59:13.875Z,94.26
2023-01-12T08:00:13.849Z,94.05
2023-01-12T08:01:13.986Z,94.46
2023-01-12T08:02:13.918Z,94.56
2023-01-12T08:03:13.854Z,94.46
2023-01-12T08:04:13.899Z,94.36
2023-01-12T08:05:13.824Z,94.46
2023-01-12T08:06:13.893Z,94.51
2023-01-12T08:07:13.804Z,94.46
2023-01-12T08:08:13.790Z,94.77
2023-01-12T08:09:13.793Z,94.77
2023-01-12T08:10:13.765Z,94.98
2023-01-12T08:11:13.767Z,94.87
2023-01-12T08:12:13.778Z,94.87
2023-01-12T08:13:13.748Z,94.71
2023-01-12T08:14:13.728Z,94.98
2023-01-12T08:15:13.725Z,94.81
2023-01-12T08:16:13.730Z,94.56
2023-01-12T08:17:13.759Z,94.51
2023-01-12T08:18:13.718Z,94.87
2023-01-12T08:19:13.703Z,94.56
2023-01-12T08:20:13.693Z,94.87
2023-01-12T08:21:13.709Z,94.92
2023-01-12T08:22:13.830Z,94.36
2023-01-12T08:23:13.706Z,94.71
2023-01-12T08:24:13.662Z,94.81
2023-01-12T08:25:13.677Z,94.71
2023-01-12T08:26:13.651Z,94.77
2023-01-12T08:27:13.666Z,94.56
2023-01-12T08:28:13.628Z,94.87
2023-01-12T08:29:13.655Z,94.77
2023-01-12T08:30:13.604Z,94.92
2023-01-12T08:31:14.829Z,94.46
2023-01-12T08:32:14.011Z,94.40
2023-01-12T08:33:16.163Z,94.46
2023-01-12T08:34:14.812Z,94.67
2023-01-12T08:35:15.103Z,94.56
2023-01-12T08:37:13.657Z,94.87
2023-01-12T08:38:14.188Z,94.92
2023-01-12T08:39:16.172Z,95.12
2023-01-12T08:40:15.231Z,94.98
2023-01-12T08:41:14.084Z,95.33
2023-01-12T08:42:13.617Z,95.43
2023-01-12T08:43:18.094Z,95.49
2023-01-12T08:44:13.606Z,95.33
2023-01-12T08:45:13.548Z,95.59
2023-01-12T08:46:14.314Z,95.28
2023-01-12T08:47:14.095Z,95.74
2023-01-12T08:48:13.524Z,95.95
2023-01-12T08:49:16.823Z,95.74
2023-01-12T08:50:14.089Z,95.84
2023-01-12T08:51:14.510Z,95.74
2023-01-12T08:52:14.182Z,95.95
2023-01-12T08:53:14.089Z,96.31
2023-01-12T08:54:16.646Z,95.95
2023-01-12T08:55:14.292Z,96.11
2023-01-12T08:56:15.161Z,96.46
2023-01-12T08:57:16.596Z,96.00
2023-01-12T08:58:20.105Z,96.11
2023-01-12T08:59:16.088Z,96.11
2023-01-12T09:00:13.461Z,96.42
2023-01-12T09:01:22.221Z,96.31
2023-01-12T09:02:15.182Z,96.11
2023-01-12T09:03:14.389Z,96.11
2023-01-12T09:04:15.158Z,96.36
2023-01-12T09:05:17.090Z,96.31
2023-01-12T09:06:13.372Z,96.05
2023-01-12T09:07:14.596Z,96.46
2023-01-12T09:08:13.392Z,96.15
2023-01-12T09:09:14.219Z,96.00
2023-01-12T09:10:13.405Z,96.31
2023-01-12T09:11:13.364Z,96.11
2023-01-12T09:12:16.148Z,96.21
2023-01-12T09:13:14.093Z,96.52
2023-01-12T09:14:13.368Z,96.62
2023-01-12T09:15:14.276Z,96.52
2023-01-12T09:16:14.457Z,96.56
2023-01-12T09:17:16.599Z,96.11
2023-01-12T09:18:14.096Z,96.52
2023-01-12T09:19:14.606Z,96.52
2023-01-12T09:20:14.890Z,96.11
2023-01-12T09:21:15.307Z,96.11
2023-01-12T09:22:14.600Z,96.56
2023-01-12T09:23:14.108Z,96.21
2023-01-12T09:24:13.899Z,96.31
2023-01-12T09:25:16.106Z,96.31
2023-01-12T09:26:14.096Z,96.42
2023-01-12T09:27:14.171Z,96.11
2023-01-12T09:28:14.094Z,96.83
2023-01-12T09:29:15.795Z,96.62
2023-01-12T09:30:14.101Z,96.88
2023-01-12T09:31:13.266Z,96.56
2023-01-12T09:32:13.755Z,96.97
2023-01-12T09:33:15.151Z,96.83
2023-01-12T09:34:13.169Z,96.93
2023-01-12T09:35:13.164Z,96.93
2023-01-12T09:36:13.791Z,96.52
2023-01-12T09:37:13.176Z,96.93
2023-01-12T09:38:15.601Z,96.31
2023-01-12T09:39:26.477Z,96.52
2023-01-12T09:40:15.661Z,96.56
2023-01-12T09:41:14.597Z,96.83
2023-01-12T09:42:15.610Z,97.14
2023-01-12T09:43:16.098Z,96.83
2023-01-12T09:44:14.639Z,96.93
2023-01-12T09:45:16.724Z,96.83
2023-01-12T09:46:14.670Z,96.72
2023-01-12T09:47:13.750Z,96.42
2023-01-12T09:48:15.099Z,96.72
2023-01-12T09:49:17.163Z,96.52
2023-01-12T09:50:14.693Z,96.52
2023-01-12T09:51:16.601Z,96.62
2023-01-12T09:52:13.906Z,96.78
2023-01-12T09:53:16.602Z,96.72
2023-01-12T09:54:14.102Z,96.93
2023-01-12T09:55:14.121Z,96.93
2023-01-12T09:56:13.676Z,96.31
2023-01-12T09:57:24.399Z,96.83
2023-01-12T09:58:17.104Z,96.62
2023-01-12T09:59:18.752Z,96.72
2023-01-12T10:00:16.111Z,96.93
2023-01-12T10:01:24.111Z,96.42
2023-01-12T10:02:16.671Z,96.93
2023-01-12T10:03:13.664Z,96.78
2023-01-12T10:04:12.899Z,96.62
2023-01-12T10:05:12.894Z,96.72
2023-01-12T10:06:12.869Z,96.93
2023-01-12T10:07:12.851Z,96.93
2023-01-12T10:08:12.843Z,96.83
2023-01-12T10:09:12.860Z,96.58
2023-01-12T10:10:12.833Z,97.30
2023-01-12T10:11:12.819Z,97.24
2023-01-12T10:12:12.840Z,97.19
2023-01-12T10:13:12.801Z,96.99
2023-01-12T10:14:12.820Z,96.78
2023-01-12T10:15:12.816Z,96.47
2023-01-12T10:16:12.803Z,96.68
2023-01-12T10:17:12.781Z,97.19
2023-01-12T10:18:12.769Z,97.24
2023-01-12T10:19:12.797Z,97.24
2023-01-12T10:20:12.764Z,97.30
2023-01-12T10:21:12.751Z,97.40
2023-01-12T10:22:12.736Z,97.40
2023-01-12T10:23:12.769Z,97.19
2023-01-12T10:24:12.745Z,97.36
2023-01-12T10:25:12.736Z,97.61
2023-01-12T10:26:12.700Z,97.61
2023-01-12T10:27:12.701Z,97.61
2023-01-12T10:28:12.684Z,97.61
2023-01-12T10:29:12.706Z,97.50
2023-01-12T10:30:12.698Z,97.71
2023-01-12T10:31:13.668Z,97.50
2023-01-12T10:32:13.062Z,97.50
2023-01-12T10:33:12.649Z,97.50
2023-01-12T10:34:12.692Z,97.61
2023-01-12T10:35:45.211Z,97.30
2023-01-12T10:36:12.627Z,97.61
2023-01-12T10:37:12.622Z,97.36
2023-01-12T10:38:12.612Z,97.50
2023-01-12T10:39:12.623Z,97.30
2023-01-12T10:40:12.599Z,97.25
2023-01-12T10:41:12.577Z,97.09
2023-01-12T10:42:12.577Z,97.45
2023-01-12T10:43:19.581Z,97.50
2023-01-12T10:44:14.596Z,97.45
2023-01-12T10:45:12.555Z,97.36
2023-01-12T10:46:13.629Z,97.71
2023-01-12T10:47:12.538Z,97.50
2023-01-12T10:48:12.531Z,97.66
2023-01-12T10:49:12.556Z,97.36
2023-01-12T10:50:12.529Z,97.36
2023-01-12T10:51:12.524Z,97.66
2023-01-12T10:52:12.511Z,97.25
2023-01-12T10:53:12.499Z,97.25
2023-01-12T10:54:12.501Z,97.45
2023-01-12T10:55:12.544Z,97.36
2023-01-12T10:56:12.531Z,97.61
2023-01-12T10:57:12.520Z,97.36
2023-01-12T10:58:12.462Z,97.25
2023-01-12T10:59:12.474Z,97.36
2023-01-12T11:00:12.466Z,97.25
2023-01-12T11:01:12.553Z,97.87
2023-01-12T11:02:12.654Z,97.36
2023-01-12T11:03:12.455Z,97.36
2023-01-12T11:04:12.434Z,97.40
2023-01-12T11:05:12.449Z,97.50
2023-01-12T11:06:12.420Z,97.56
2023-01-12T11:07:12.386Z,97.15
2023-01-12T11:08:12.381Z,97.25
2023-01-12T11:09:12.391Z,97.05
2023-01-12T11:10:12.460Z,97.56
2023-01-12T11:11:12.458Z,97.36
2023-01-12T11:12:12.346Z,98.07
2023-01-12T11:13:12.348Z,97.87
2023-01-12T11:14:13.222Z,97.36
2023-01-12T11:15:12.349Z,97.77
2023-01-12T11:16:12.422Z,97.87
2023-01-12T11:17:12.339Z,97.77
2023-01-12T11:18:12.366Z,98.44
2023-01-12T11:19:12.296Z,98.28
2023-01-12T11:20:12.331Z,97.97
2023-01-12T11:21:12.378Z,97.66
2023-01-12T11:22:12.281Z,97.36
2023-01-12T11:23:13.295Z,97.66
2023-01-12T11:24:12.258Z,97.87
2023-01-12T11:25:12.289Z,97.87
2023-01-12T11:26:12.275Z,97.92
2023-01-12T11:27:12.231Z,97.20
2023-01-12T11:28:12.236Z,97.41
2023-01-12T11:29:12.225Z,97.31
2023-01-12T11:30:12.235Z,97.41
2023-01-12T11:31:12.314Z,97.31
2023-01-12T11:32:12.202Z,97.41
2023-01-12T11:33:12.192Z,97.31
2023-01-12T11:34:12.222Z,97.10
2023-01-12T11:35:12.233Z,97.06
2023-01-12T11:36:12.190Z,97.10
2023-01-12T11:37:12.166Z,96.95
2023-01-12T11:38:12.153Z,96.95
2023-01-12T11:39:12.148Z,97.10
2023-01-12T11:40:12.160Z,97.37
2023-01-12T11:41:12.122Z,97.37
2023-01-12T11:42:12.124Z,97.06
2023-01-12T11:43:12.122Z,96.95
2023-01-12T11:44:12.104Z,97.00
2023-01-12T11:45:12.163Z,97.16
2023-01-12T11:46:12.129Z,97.57
2023-01-12T11:47:12.084Z,97.16
2023-01-12T11:48:12.073Z,97.37
2023-01-12T11:49:12.080Z,97.16
2023-01-12T11:50:12.094Z,97.27
2023-01-12T11:51:12.056Z,97.27
2023-01-12T11:52:12.051Z,97.37
2023-01-12T11:53:12.038Z,97.16
2023-01-12T11:54:12.048Z,96.55
2023-01-12T11:55:12.052Z,97.10
2023-01-12T11:56:12.019Z,97.06
2023-01-12T11:57:12.007Z,97.37
2023-01-12T11:58:11.996Z,97.37
2023-01-12T11:59:12.019Z,97.16
2023-01-12T12:00:11.991Z,97.16
2023-01-12T12:01:12.060Z,97.16
2023-01-12T12:02:12.072Z,97.12
2023-01-12T12:03:11.963Z,97.37
2023-01-12T12:04:11.953Z,96.95
2023-01-12T12:05:12.022Z,96.95
2023-01-12T12:06:11.959Z,97.27
2023-01-12T12:07:11.931Z,97.06
2023-01-12T12:08:11.937Z,97.27
2023-01-12T12:09:11.935Z,97.27
2023-01-12T12:10:11.913Z,96.95
2023-01-12T12:11:11.951Z,97.37
2023-01-12T12:12:11.921Z,97.16
2023-01-12T12:13:11.911Z,97.06
2023-01-12T12:14:11.886Z,96.75
2023-01-12T12:15:11.879Z,97.06
2023-01-12T12:16:11.940Z,97.57
2023-01-12T12:17:11.853Z,97.42
2023-01-12T12:18:11.869Z,96.75
2023-01-12T12:19:11.847Z,97.47
2023-01-12T12:20:11.832Z,97.16
2023-01-12T12:21:11.852Z,97.06
2023-01-12T12:22:11.847Z,97.06
2023-01-12T12:23:11.817Z,96.95
2023-01-12T12:24:11.827Z,97.47
2023-01-12T12:25:11.831Z,97.27
2023-01-12T12:26:11.818Z,97.37
2023-01-12T12:27:11.792Z,97.27
2023-01-12T12:28:11.775Z,97.12
2023-01-12T12:29:11.766Z,97.47
2023-01-12T12:30:11.760Z,97.27
2023-01-12T12:31:11.835Z,97.67
2023-01-12T12:32:11.745Z,97.99
2023-01-12T12:33:11.795Z,98.50
2023-01-12T12:34:11.733Z,97.99
2023-01-12T12:35:11.722Z,97.88
2023-01-12T12:36:11.752Z,97.99
2023-01-12T12:37:11.708Z,98.08
2023-01-12T12:38:11.699Z,98.08
2023-01-12T12:39:11.700Z,98.08
2023-01-12T12:40:11.718Z,97.88
2023-01-12T12:41:11.717Z,98.29
2023-01-12T12:42:11.680Z,98.08
2023-01-12T12:43:11.664Z,98.19
2023-01-12T12:44:11.676Z,98.19
2023-01-12T12:45:11.649Z,97.99
2023-01-12T12:46:11.686Z,98.08
2023-01-12T12:47:11.652Z,97.78
2023-01-12T12:48:11.672Z,97.99
2023-01-12T12:49:11.617Z,97.99
2023-01-12T12:50:11.615Z,98.39
2023-01-12T12:51:11.613Z,97.73
2023-01-12T12:52:11.616Z,97.78
2023-01-12T12:53:11.599Z,97.78